Latest Weather Observations for Avalon

IDV60801

Issued at 9:31 am EST Thursday 28 May 2015 (issued every 30 minutes, with the page automatically refreshed every 10 minutes)

About weather observations | Map of weather stations | Latest weather observations for VIC | Other Formats
Station Details ID: 087113 Name: AVALON AIRPORT Lat: -38.03 Lon: 144.48 Height: 10.6 m
Data from the previous 72 hours. | See also: Recent months at Avalon
Date/Time
EST
Temp
°C
App
Temp
°C
Dew
Point
Rel
Hum
%
Delta-T
°C
Wind Press
QNH
hPa
Press
MSL
hPa
Rain
since 9 am
mm
Dir
 
Spd
km/h
Gust
km/h
Spd
kts
Gust
kts
28/09:30am 14.7 9.6 9.1 69 2.9 N 26 33 14 18 1016.1 1016.1 0.0
28/09:00am 13.5 9.5 9.2 75 2.2 N 20 26 11 14 1016.3 1016.3 0.0
28/08:30am 13.0 8.1 8.3 73 2.3 N 24 33 13 18 1016.2 1016.2 0.0
28/08:00am 13.0 8.4 8.3 73 2.3 N 22 28 12 15 1016.2 1016.2 0.0
28/07:30am 13.7 9.7 8.1 69 2.8 N 19 26 10 14 1016.3 1016.3 0.0
28/07:00am 13.6 10.1 8.9 73 2.4 N 17 22 9 12 1016.4 1016.4 0.0
28/06:30am 13.8 9.8 9.0 73 2.4 NNE 20 28 11 15 1015.9 1015.9 0.0
28/06:00am 13.7 10.3 9.0 73 2.4 NNE 17 20 9 11 1015.8 1015.8 0.0
28/05:30am 13.4 9.4 8.9 74 2.3 N 20 26 11 14 1015.8 1015.8 0.0
28/05:00am 12.9 8.8 8.8 76 2.1 N 20 26 11 14 1016.2 1016.2 0.0
28/04:30am 13.0 9.0 8.9 76 2.1 N 20 24 11 13 1016.1 1016.1 0.0
28/04:00am 12.8 8.8 8.9 77 2.0 N 20 24 11 13 1016.3 1016.3 0.0
28/03:30am 12.7 7.9 9.0 78 1.9 N 24 33 13 18 1016.3 1016.3 0.0
28/03:00am 12.0 7.5 8.7 80 1.6 N 22 26 12 14 1016.7 1016.7 0.0
28/02:30am 12.3 7.9 9.0 80 1.7 N 22 28 12 15 1016.8 1016.8 0.0
28/02:00am 12.6 8.6 9.2 80 1.7 N 20 24 11 13 1016.9 1016.9 0.0
28/01:30am 13.0 8.3 9.3 78 1.9 N 24 32 13 17 1017.1 1017.1 0.0
28/01:00am 13.4 8.8 9.5 77 2.0 N 24 30 13 16 1017.2 1017.2 0.0
28/12:30am 14.1 9.5 9.5 74 2.4 N 24 33 13 18 1017.4 1017.4 0.0
28/12:00am 14.5 9.9 9.7 73 2.5 N 24 35 13 19 1017.5 1017.5 0.0
 
Date/Time
EST
Temp
°C
App
Temp
°C
Dew
Point
Rel
Hum
%
Delta-T
°C
Wind Press
QNH
hPa
Press
MSL
hPa
Rain
since 9 am
mm
Dir
 
Spd
km/h
Gust
km/h
Spd
kts
Gust
kts
27/11:30pm 14.9 10.4 10.1 73 2.5 N 24 30 13 16 1017.7 1017.7 0.0
27/11:00pm 14.9 10.9 10.3 74 2.4 N 22 30 12 16 1017.8 1017.8 0.0
27/10:30pm 14.2 11.8 10.0 76 2.2 N 13 17 7 9 1017.9 1017.9 0.0
27/10:00pm 14.3 11.5 9.9 75 2.3 N 15 20 8 11 1018.1 1018.1 0.0
27/09:30pm 14.8 10.7 10.2 74 2.4 N 22 33 12 18 1017.8 1017.8 0.0
27/09:00pm 14.4 10.3 10.0 75 2.3 N 22 30 12 16 1017.7 1017.7 0.0
27/08:30pm 13.9 9.7 9.9 77 2.1 N 22 32 12 17 1017.8 1017.8 0.0
27/08:00pm 11.5 9.2 8.9 84 1.3 NE 11 17 6 9 1017.9 1017.9 0.0
27/07:30pm 12.2 9.9 9.0 81 1.6 NNE 11 17 6 9 1018.1 1018.1 0.0
27/07:00pm 13.3 9.6 9.5 78 1.9 N 19 22 10 12 1018.1 1018.1 0.0
27/06:30pm 13.5 10.1 9.2 75 2.2 N 17 24 9 13 1018.0 1018.0 0.0
27/06:00pm 14.6 11.2 9.2 70 2.8 NNW 17 22 9 12 1017.8 1017.8 0.0
27/05:30pm 15.4 12.7 9.1 66 3.2 NNW 13 19 7 10 1017.5 1017.5 0.0
27/05:00pm 17.7 13.8 9.3 58 4.4 NW 20 32 11 17 1017.2 1017.2 0.0
27/04:30pm 18.5 14.8 9.6 56 4.7 NNW 19 24 10 13 1017.0 1017.0 0.0
27/04:00pm 19.2 15.0 9.9 55 5.0 NNW 22 35 12 19 1017.0 1017.0 0.0
27/03:30pm 19.8 14.8 9.7 52 5.4 NNW 26 35 14 19 1016.8 1016.8 0.0
27/03:00pm 19.9 13.7 9.5 51 5.5 NNW 32 41 17 22 1016.6 1016.6 0.0
27/02:30pm 20.5 14.3 10.0 51 5.7 NW 33 48 18 26 1016.6 1016.6 0.0
27/02:00pm 19.6 13.7 9.2 51 5.5 NW 30 41 16 22 1016.8 1016.8 0.0
27/01:30pm 20.5 15.9 9.7 50 5.8 NNW 24 33 13 18 1017.2 1017.2 0.0
27/01:00pm 20.2 14.9 10.0 52 5.5 NNW 28 33 15 18 1017.5 1017.5 0.0
27/12:30pm 19.3 15.4 10.8 58 4.6 N 22 32 12 17 1017.9 1017.9 0.0
27/12:00pm 17.1 13.4 10.2 64 3.6 N 20 26 11 14 1018.7 1018.7 0.0
27/11:30am 16.2 12.7 10.3 68 3.1 N 19 26 10 14 1019.3 1019.3 0.0
27/11:00am 15.3 11.9 10.7 74 2.4 N 19 28 10 15 1019.6 1019.6 0.0
27/10:30am 15.3 12.3 9.2 67 3.1 NNE 15 20 8 11 1019.8 1019.8 0.0
27/10:00am 14.2 10.6 8.4 68 2.9 NNE 17 22 9 12 1020.0 1020.0 0.0
27/09:30am 13.7 10.0 8.1 69 2.8 NNE 17 20 9 11 1020.0 1020.0 0.0
27/09:00am 13.4 9.0 7.6 68 2.8 NNE 20 28 11 15 1020.0 1020.0 0.2
27/08:30am 12.1 9.0 7.4 73 2.3 NNE 13 22 7 12 1020.0 1020.0 0.2
27/08:00am 11.9 9.2 7.4 74 2.2 N 11 17 6 9 1019.9 1019.9 0.2
27/07:30am 12.1 8.5 6.6 69 2.6 NNW 15 20 8 11 1019.8 1019.8 0.2
27/07:00am 12.2 7.5 7.7 74 2.2 NNE 22 26 12 14 1019.6 1019.6 0.2
27/06:30am 11.6 8.4 8.3 80 1.6 NNE 15 19 8 10 1019.5 1019.5 0.2
27/06:00am 11.9 8.3 8.4 79 1.7 NNE 17 20 9 11 1019.6 1019.6 0.2
27/05:30am 10.9 8.5 8.7 86 1.1 NE 11 15 6 8 1019.9 1019.9 0.2
27/05:00am 10.9 8.0 8.3 84 1.3 ENE 13 15 7 8 1020.0 1020.0 0.2
27/04:30am 10.5 7.6 8.1 85 1.2 NNE 13 15 7 8 1020.2 1020.2 0.0
27/04:00am 11.1 8.2 8.1 82 1.5 NNE 13 17 7 9 1020.3 1020.3 0.0
27/03:30am 10.2 7.2 7.8 85 1.2 NE 13 15 7 8 1020.4 1020.4 0.0
27/03:00am 8.9 6.1 6.9 87 0.9 ENE 11 13 6 7 1020.7 1020.7 0.0
27/02:30am 8.5 5.9 6.1 85 1.1 ENE 9 11 5 6 1021.2 1021.2 0.0
27/02:00am 8.3 5.0 6.6 89 0.8 E 13 15 7 8 1021.4 1021.4 0.0
27/01:30am 7.8 5.1 5.6 86 1.0 E 9 13 5 7 1021.5 1021.5 0.0
27/01:00am 9.1 5.9 6.7 85 1.1 ENE 13 15 7 8 1021.9 1021.9 0.0
27/12:30am 8.3 4.9 5.9 85 1.1 NE 13 15 7 8 1022.3 1022.3 0.0
27/12:00am 8.9 4.9 6.7 86 1.0 NE 17 20 9 11 1022.5 1022.5 0.0
 
Date/Time
EST
Temp
°C
App
Temp
°C
Dew
Point
Rel
Hum
%
Delta-T
°C
Wind Press
QNH
hPa
Press
MSL
hPa
Rain
since 9 am
mm
Dir
 
Spd
km/h
Gust
km/h
Spd
kts
Gust
kts
26/11:30pm 8.5 5.1 6.1 85 1.1 NE 13 15 7 8 1022.9 1022.9 0.0
26/11:00pm 8.5 4.4 6.3 86 1.0 NE 17 17 9 9 1022.9 1022.9 0.0
26/10:30pm 8.9 5.1 6.0 82 1.3 NE 15 17 8 9 1023.0 1023.0 0.0
26/10:00pm 9.3 5.6 6.4 82 1.3 NE 15 17 8 9 1023.3 1023.3 0.0
26/09:30pm 10.9 7.0 7.0 77 1.9 NE 17 20 9 11 1023.4 1023.4 0.0
26/09:00pm 11.1 7.2 7.2 77 1.9 NNE 17 20 9 11 1023.6 1023.6 0.0
26/08:30pm 11.7 8.0 7.8 77 1.9 NNE 17 20 9 11 1023.7 1023.7 0.0
26/08:00pm 11.4 7.7 7.9 79 1.7 NNE 17 22 9 12 1023.7 1023.7 0.0
26/07:30pm 10.6 7.2 7.8 83 1.4 NE 15 19 8 10 1023.9 1023.9 0.0
26/07:00pm 11.3 8.5 8.7 84 1.3 NE 13 15 7 8 1024.1 1024.1 0.0
26/06:30pm 11.0 9.1 8.9 87 1.0 NE 9 13 5 7 1024.4 1024.4 0.0
26/06:00pm 11.9 10.2 10.0 88 1.0 ENE 9 13 5 7 1024.4 1024.4 0.0
26/05:30pm 11.5 9.7 9.6 88 1.0 ESE 9 9 5 5 1024.4 1024.4 0.0
26/05:00pm 12.0 10.2 9.4 84 1.3 E 9 11 5 6 1024.4 1024.4 0.0
26/04:30pm 12.7 10.5 9.2 79 1.8 E 11 13 6 7 1024.5 1024.5 0.0
26/04:00pm 12.9 10.3 9.2 78 1.9 ESE 13 15 7 8 1024.9 1024.9 0.0
26/03:30pm 12.9 11.0 9.2 78 1.9 ESE 9 11 5 6 1025.0 1025.0 0.0
26/03:00pm 13.3 10.9 8.6 73 2.3 ESE 11 11 6 6 1025.2 1025.2 0.0
26/02:30pm 13.4 10.7 9.1 75 2.2 ESE 13 13 7 7 1025.4 1025.4 0.0
26/02:00pm 14.2 12.5 8.2 67 3.0 E 7 9 4 5 1025.8 1025.8 0.0
26/01:30pm 13.6 11.3 9.1 74 2.3 ESE 11 13 6 7 1026.2 1026.2 0.0
26/01:00pm 13.2 10.9 8.9 75 2.2 SE 11 13 6 7 1026.6 1026.6 0.0
26/12:30pm 13.5 12.9 8.8 73 2.4 ENE 2 9 1 5 1027.1 1027.1 0.0
26/12:00pm 12.4 10.9 8.3 76 2.0 ESE 6 9 3 5 1027.5 1027.5 0.0
26/11:30am 11.7 9.2 8.0 78 1.8 SE 11 15 6 8 1027.8 1027.8 0.0
26/11:00am 10.9 8.6 7.6 80 1.6 ESE 9 11 5 6 1028.7 1028.7 0.0
26/10:30am 10.8 9.5 7.7 81 1.5 E 4 9 2 5 1029.3 1029.3 0.0
26/10:00am 10.5 10.1 8.3 86 1.1 CALM 0 0 0 0 1029.3 1029.3 0.0
26/09:30am 8.4 7.5 7.8 96 0.3 NNW 2 6 1 3 1029.5 1029.5 0.0
26/09:00am 7.3 6.7 7.2 99 0.0 CALM 0 0 0 0 1029.5 1029.5 0.0
26/08:30am 4.9 2.4 4.8 99 0.0 NNW 7 7 4 4 1029.6 1029.6 0.0
26/08:00am 3.9 0.8 3.8 99 0.0 NNW 9 11 5 6 1029.5 1029.5 0.0
26/07:30am 3.5 0.4 3.4 99 0.0 NNW 9 11 5 6 1029.3 1029.3 0.0
26/07:00am 3.2 -0.4 3.1 99 0.0 NNW 11 11 6 6 1029.3 1029.3 0.0
26/06:30am 3.2 0.0 3.1 99 0.0 NNW 9 13 5 7 1029.0 1029.0 0.0
26/06:00am 2.3 -0.7 2.2 99 0.0 WNW 7 9 4 5 1028.8 1028.8 0.0
26/05:30am 2.6 -0.7 2.5 99 0.0 WNW 9 9 5 5 1029.0 1029.0 0.0
26/05:00am 2.7 0.0 2.6 99 0.0 WNW 6 7 3 4 1029.0 1029.0 0.0
26/04:30am 2.7 -0.6 2.6 99 0.0 NW 9 9 5 5 1029.0 1029.0 0.0
26/04:23am 3.0 -0.2 2.9 99 0.0 NW 9 11 5 6 1029.0 1029.0 0.0
26/04:00am 2.9 -1.1 2.6 98 0.1 NNW 13 13 7 7 1029.1 1029.1 0.0
26/03:53am 3.1 -0.1 2.8 98 0.1 NNW 9 13 5 7 1029.0 1029.0 0.0
26/03:30am 3.4 0.6 3.1 98 0.1 N 7 9 4 5 1029.0 1029.0 0.0
26/03:00am 2.7 -0.3 2.1 96 0.2 N 7 9 4 5 1029.1 1029.1 0.0
26/02:30am 3.6 2.1 3.0 96 0.2 CALM 0 0 0 0 1029.4 1029.4 0.0
26/02:00am 3.9 1.7 3.2 95 0.3 NNE 4 9 2 5 1029.3 1029.3 0.0
26/01:30am 5.3 3.0 4.9 97 0.2 NE 6 7 3 4 1029.3 1029.3 0.0
26/01:00am 4.6 2.9 4.0 96 0.2 NE 2 9 1 5 1029.5 1029.5 0.0
26/12:30am 4.0 2.6 3.3 95 0.3 CALM 0 0 0 0 1029.5 1029.5 0.0
26/12:00am 4.8 3.1 4.2 96 0.3 WNW 2 9 1 5 1029.6 1029.6 0.0
 
Date/Time
EST
Temp
°C
App
Temp
°C
Dew
Point
Rel
Hum
%
Delta-T
°C
Wind Press
QNH
hPa
Press
MSL
hPa
Rain
since 9 am
mm
Dir
 
Spd
km/h
Gust
km/h
Spd
kts
Gust
kts
25/11:30pm 4.6 2.1 3.9 95 0.3 NW 6 7 3 4 1029.7 1029.7 0.0
25/11:00pm 4.8 2.1 3.9 94 0.4 WNW 7 9 4 5 1029.6 1029.6 0.0
25/10:30pm 6.4 4.1 5.5 94 0.4 WNW 7 7 4 4 1029.8 1029.8 0.0
25/10:00pm 6.5 4.2 5.5 93 0.4 NW 7 9 4 5 1029.9 1029.9 0.0
25/09:30pm 7.8 5.3 6.6 92 0.6 NNW 9 9 5 5 1030.0 1030.0 0.0
25/09:00pm 7.6 5.0 6.1 90 0.7 NW 9 11 5 6 1029.9 1029.9 0.0
25/08:30pm 7.6 5.3 5.9 89 0.8 NNW 7 9 4 5 1029.9 1029.9 0.0
25/08:00pm 9.4 7.2 7.8 90 0.8 NE 9 11 5 6 1029.8 1029.8 0.0
25/07:30pm 8.8 8.1 6.9 88 0.9 CALM 0 0 0 0 1029.8 1029.8 0.0
25/07:00pm 9.6 7.7 7.7 88 0.9 ENE 7 9 4 5 1029.5 1029.5 0.0
25/06:30pm 11.1 9.1 8.7 85 1.2 ENE 9 11 5 6 1029.3 1029.3 0.0
25/06:00pm 11.6 9.7 9.2 85 1.2 ESE 9 11 5 6 1029.0 1029.0 0.0
25/05:30pm 11.3 9.2 8.3 82 1.5 ESE 9 11 5 6 1028.6 1028.6 0.0
25/05:00pm 12.3 10.2 8.2 76 2.0 ESE 9 11 5 6 1028.5 1028.5 0.0
25/04:30pm 14.7 12.5 9.3 70 2.8 E 11 13 6 7 1028.5 1028.5 0.0
25/04:00pm 15.0 12.6 10.0 72 2.6 ESE 13 19 7 10 1028.5 1028.5 0.0
25/03:30pm 15.1 11.9 10.1 72 2.6 ESE 17 20 9 11 1028.5 1028.5 0.0
25/03:00pm 15.2 12.0 10.0 71 2.7 SE 17 19 9 10 1028.5 1028.5 0.0
25/02:30pm 15.1 11.9 9.9 71 2.7 SE 17 19 9 10 1028.7 1028.7 0.0
25/02:00pm 14.9 12.3 9.5 70 2.8 SE 13 19 7 10 1028.9 1028.9 0.0
25/01:30pm 15.2 13.5 9.8 70 2.8 ESE 9 13 5 7 1029.2 1029.2 0.0
25/01:00pm 14.4 11.8 9.2 71 2.6 SE 13 17 7 9 1029.6 1029.6 0.0
25/12:30pm 14.6 13.2 9.4 71 2.7 ESE 7 11 4 6 1029.9 1029.9 0.0
25/12:00pm 13.4 11.4 8.7 73 2.3 SE 9 13 5 7 1030.4 1030.4 0.0
25/11:30am 12.6 10.9 8.5 76 2.0 ESE 7 11 4 6 1030.9 1030.9 0.0
25/11:00am 11.5 10.0 8.4 81 1.5 SSE 6 7 3 4 1031.4 1031.4 0.0
25/10:30am 10.7 10.3 8.1 84 1.3 CALM 0 0 0 0 1031.4 1031.4 0.0
25/10:00am 9.7 7.9 7.8 88 0.9 N 7 9 4 5 1031.2 1031.2 0.0

Other Formats:

Comma delimited format used in spreadsheet applications
http://www.bom.gov.au/fwo/IDV60801/IDV60801.94854.axf

JavaScript Object Notation format (JSON) in row-major order
http://www.bom.gov.au/fwo/IDV60801/IDV60801.94854.json